Terminal Aerodrome Forecast
Issued by NWS

Home | Current Version | Previous Version | Text Only | Print | Product List | Glossary On
Versions: 1 2 3 4 5 6 7 8 9 10 11 12 13 14 15
000
FTUS41 KBTV 262320
TAFMSS
TAF
KMSS 262320Z 2700/2724 23005KT P6SM VCSH BKN006 OVC015
     FM270200 23003KT 5SM BR VCSH BKN006 OVC010
     FM270400 VRB03KT 6SM BR BKN006 OVC020
     FM270900 35007KT 5SM -SHSN BR SCT006 OVC012
     FM271300 35007KT P6SM VCSH BKN015 OVC025=

USA.gov is the U.S. government's official web portal to all federal, state and local government web resources and services.